createdAt,value
2023-09-04T00:02:03.651Z,15.27
2023-09-04T00:04:30.597Z,14.80
2023-09-04T00:06:58.710Z,13.88
2023-09-04T00:09:25.644Z,15.25
2023-09-04T00:11:52.561Z,15.02
2023-09-04T00:14:19.486Z,13.20
2023-09-04T00:16:46.400Z,15.50
2023-09-04T00:19:14.718Z,14.95
2023-09-04T00:21:41.900Z,16.65
2023-09-04T00:24:09.099Z,14.75
2023-09-04T00:26:36.798Z,15.60
2023-09-04T00:29:03.895Z,16.08
2023-09-04T00:31:30.848Z,15.25
2023-09-04T00:33:57.826Z,15.95
2023-09-04T00:36:26.088Z,16.88
2023-09-04T00:38:53.072Z,16.30
2023-09-04T00:41:20.106Z,16.20
2023-09-04T00:43:47.019Z,13.88
2023-09-04T00:46:14.150Z,14.57
2023-09-04T00:48:41.627Z,17.60
2023-09-04T00:51:08.823Z,15.40
2023-09-04T00:53:38.753Z,16.45
2023-09-04T00:56:07.334Z,16.42
2023-09-04T00:58:35.264Z,14.52
2023-09-04T01:01:02.396Z,17.77
2023-09-04T01:03:30.601Z,16.15
2023-09-04T01:05:57.913Z,17.15
2023-09-04T01:08:25.944Z,15.25
2023-09-04T01:11:00.385Z,20.92
2023-09-04T01:13:31.972Z,16.95
2023-09-04T01:16:00.473Z,16.95
2023-09-04T01:18:28.554Z,17.90
2023-09-04T01:21:04.008Z,15.02
2023-09-04T01:23:31.009Z,17.00
2023-09-04T01:26:07.960Z,15.65
2023-09-04T01:28:43.293Z,18.85
2023-09-04T01:31:18.338Z,15.07
2023-09-04T01:33:51.276Z,17.30
2023-09-04T01:36:21.399Z,16.30
2023-09-04T01:38:48.540Z,16.15
2023-09-04T01:41:15.605Z,18.13
2023-09-04T01:43:42.570Z,17.05
2023-09-04T01:46:10.347Z,18.75
2023-09-04T01:48:37.266Z,16.23
2023-09-04T01:51:04.227Z,17.35
2023-09-04T01:53:32.513Z,17.30
2023-09-04T01:55:59.448Z,16.90
2023-09-04T01:58:26.865Z,17.55
2023-09-04T02:00:53.816Z,16.45
2023-09-04T02:03:20.948Z,14.85
2023-09-04T02:05:48.052Z,16.55
2023-09-04T02:08:15.205Z,16.90
2023-09-04T02:10:43.579Z,14.80
2023-09-04T02:13:10.560Z,16.10
2023-09-04T02:15:37.902Z,16.58
2023-09-04T02:18:05.236Z,16.52
2023-09-04T02:20:32.683Z,17.05
2023-09-04T02:22:59.908Z,21.52
2023-09-04T02:25:27.527Z,21.20
2023-09-04T02:27:55.901Z,17.88
2023-09-04T02:30:22.922Z,17.95
2023-09-04T02:32:49.981Z,18.35
2023-09-04T02:35:17.301Z,22.08
2023-09-04T02:37:44.567Z,21.30
2023-09-04T02:40:12.751Z,20.67
2023-09-04T02:42:39.855Z,19.30
2023-09-04T02:45:09.930Z,19.52
2023-09-04T02:47:36.893Z,19.15
2023-09-04T02:50:06.489Z,20.50
2023-09-04T02:52:33.536Z,20.58
2023-09-04T02:55:00.770Z,20.65
2023-09-04T02:57:29.979Z,17.52
2023-09-04T02:59:56.903Z,19.08
2023-09-04T03:02:25.478Z,20.33
2023-09-04T03:04:56.022Z,20.27
2023-09-04T03:07:23.176Z,18.75
2023-09-04T03:09:54.946Z,20.75
2023-09-04T03:12:21.961Z,21.42
2023-09-04T03:14:48.890Z,21.63
2023-09-04T03:17:15.851Z,24.55
2023-09-04T03:19:44.240Z,19.80
2023-09-04T03:22:11.240Z,16.80
2023-09-04T03:24:38.194Z,19.80
2023-09-04T03:27:05.649Z,22.02
2023-09-04T03:29:32.628Z,20.15
2023-09-04T03:32:00.114Z,21.38
2023-09-04T03:34:27.026Z,18.55
2023-09-04T03:36:55.310Z,21.05
2023-09-04T03:39:22.899Z,18.00
2023-09-04T03:41:49.846Z,23.88
2023-09-04T03:44:16.816Z,21.35
2023-09-04T03:46:44.136Z,20.50
2023-09-04T03:49:11.788Z,21.85
2023-09-04T03:51:38.683Z,23.52
2023-09-04T03:54:07.170Z,20.33
2023-09-04T03:56:34.593Z,21.10
2023-09-04T03:59:01.577Z,18.88
2023-09-04T04:01:28.814Z,24.33
2023-09-04T04:03:56.111Z,23.05
2023-09-04T04:06:23.113Z,21.50
2023-09-04T04:08:50.307Z,20.52
2023-09-04T04:11:18.880Z,21.30
2023-09-04T04:13:45.987Z,21.77
2023-09-04T04:16:13.247Z,20.05
2023-09-04T04:18:40.344Z,21.65
2023-09-04T04:21:07.262Z,18.42
2023-09-04T04:23:35.433Z,20.85
2023-09-04T04:26:02.529Z,22.48
2023-09-04T04:28:30.999Z,21.92
2023-09-04T04:31:01.544Z,22.98
2023-09-04T04:33:28.601Z,23.13
2023-09-04T04:35:55.759Z,18.73
2023-09-04T04:38:23.163Z,18.80
2023-09-04T04:40:50.432Z,21.85
2023-09-04T04:43:17.344Z,21.20
2023-09-04T04:45:45.673Z,22.45
2023-09-04T04:48:12.753Z,20.98
2023-09-04T04:50:39.658Z,20.00
2023-09-04T04:53:06.588Z,20.60
2023-09-04T04:55:33.507Z,22.45
2023-09-04T04:58:00.540Z,24.20
2023-09-04T05:00:27.502Z,22.20
2023-09-04T05:02:55.883Z,20.52
2023-09-04T05:05:23.146Z,19.83
2023-09-04T05:07:50.015Z,17.90
2023-09-04T05:10:17.111Z,19.50
2023-09-04T05:12:44.312Z,20.88
2023-09-04T05:15:12.000Z,21.75
2023-09-04T05:17:38.940Z,19.58
2023-09-04T05:20:08.822Z,19.58
2023-09-04T05:22:35.706Z,19.73
2023-09-04T05:25:02.737Z,19.35
2023-09-04T05:27:29.684Z,18.52
2023-09-04T05:29:56.574Z,19.17
2023-09-04T05:32:23.531Z,19.55
2023-09-04T05:34:53.613Z,21.77
2023-09-04T05:37:22.039Z,20.73
2023-09-04T05:39:49.128Z,24.88
2023-09-04T05:42:16.067Z,24.75
2023-09-04T05:44:43.044Z,22.83
2023-09-04T05:47:10.038Z,21.50
2023-09-04T05:49:37.309Z,24.00
2023-09-04T05:52:04.629Z,20.42
2023-09-04T05:54:33.053Z,21.42
2023-09-04T05:57:00.069Z,22.00
2023-09-04T05:59:27.019Z,21.95
2023-09-04T06:01:54.042Z,22.17
2023-09-04T06:04:22.605Z,20.95
2023-09-04T06:06:51.846Z,22.27
2023-09-04T06:09:18.951Z,24.20
2023-09-04T06:11:47.455Z,23.55
2023-09-04T06:14:14.463Z,19.38
2023-09-04T06:16:41.539Z,21.42
2023-09-04T06:19:08.480Z,26.17
2023-09-04T06:21:35.603Z,27.17
2023-09-04T06:24:02.562Z,21.33
2023-09-04T06:26:29.452Z,21.80
2023-09-04T06:28:57.832Z,21.75
2023-09-04T06:31:24.867Z,22.38
2023-09-04T06:33:51.892Z,20.15
2023-09-04T06:36:18.797Z,20.67
2023-09-04T06:38:45.700Z,21.67
2023-09-04T06:41:12.644Z,19.50
2023-09-04T06:43:39.553Z,18.30
2023-09-04T06:46:08.210Z,17.50
2023-09-04T06:48:35.334Z,16.98
2023-09-04T06:51:02.307Z,13.65
2023-09-04T06:53:29.249Z,13.57
2023-09-04T06:55:56.143Z,13.45
2023-09-04T06:58:23.380Z,13.65
2023-09-04T07:00:53.490Z,14.77
2023-09-04T07:03:22.777Z,12.20
2023-09-04T07:05:50.470Z,12.50
2023-09-04T07:08:17.369Z,11.23
2023-09-04T07:10:44.298Z,11.57
2023-09-04T07:13:11.292Z,12.90
2023-09-04T07:15:38.284Z,11.75
2023-09-04T07:18:05.627Z,10.60
2023-09-04T07:20:34.218Z,10.10
2023-09-04T07:23:14.719Z,11.52
2023-09-04T07:25:48.106Z,10.32
2023-09-04T07:28:15.058Z,11.50
2023-09-04T07:30:41.954Z,9.75
2023-09-04T07:33:08.934Z,10.20
2023-09-04T07:35:37.469Z,11.07
2023-09-04T07:38:04.724Z,10.00
2023-09-04T07:40:31.621Z,9.60
2023-09-04T07:42:58.570Z,9.02
2023-09-04T07:45:25.878Z,9.30
2023-09-04T07:47:53.061Z,9.23
2023-09-04T07:50:20.180Z,10.18
2023-09-04T07:52:48.501Z,9.80
2023-09-04T07:55:15.502Z,10.32
2023-09-04T07:57:42.446Z,8.98
2023-09-04T08:00:10.115Z,10.07
2023-09-04T08:02:37.042Z,8.10
2023-09-04T08:05:04.281Z,8.60
2023-09-04T08:07:33.120Z,8.48
2023-09-04T08:10:03.016Z,8.05
2023-09-04T08:12:29.971Z,7.22
2023-09-04T08:14:56.925Z,7.35
2023-09-04T08:17:23.893Z,6.75
2023-09-04T08:19:50.950Z,7.60
2023-09-04T08:22:17.898Z,8.13
2023-09-04T08:24:44.854Z,7.28
2023-09-04T08:27:13.131Z,6.82
2023-09-04T08:29:40.031Z,7.05
2023-09-04T08:32:07.112Z,6.63
2023-09-04T08:34:34.047Z,6.20
2023-09-04T08:37:00.990Z,7.38
2023-09-04T08:39:27.893Z,7.15
2023-09-04T08:41:55.840Z,7.13
2023-09-04T08:44:25.107Z,6.38
2023-09-04T08:46:54.047Z,6.13
2023-09-04T08:49:21.352Z,6.85
2023-09-04T08:51:48.473Z,6.55
2023-09-04T08:54:15.723Z,6.60
2023-09-04T08:56:42.843Z,6.60
2023-09-04T08:59:09.817Z,6.82
2023-09-04T09:01:39.324Z,6.57
2023-09-04T09:04:06.804Z,6.13
2023-09-04T09:06:34.761Z,6.78
2023-09-04T09:09:02.119Z,6.60
2023-09-04T09:11:29.423Z,6.50
2023-09-04T09:13:56.414Z,6.20
2023-09-04T09:16:23.487Z,6.00
2023-09-04T09:18:55.043Z,8.02
2023-09-04T09:21:26.938Z,5.88
2023-09-04T09:24:08.922Z,6.05
2023-09-04T09:26:36.082Z,5.68
2023-09-04T09:29:03.288Z,6.03
2023-09-04T09:31:30.424Z,5.50
2023-09-04T09:34:06.741Z,6.05
2023-09-04T09:36:40.714Z,6.75
2023-09-04T09:39:07.663Z,5.60
2023-09-04T09:41:35.162Z,7.53
2023-09-04T09:44:02.698Z,6.03
2023-09-04T09:46:30.754Z,5.15
2023-09-04T09:48:59.210Z,5.85
2023-09-04T09:51:27.626Z,7.47
2023-09-04T09:53:54.733Z,4.80
2023-09-04T09:56:21.623Z,5.50
2023-09-04T09:58:50.331Z,5.63
2023-09-04T10:01:18.568Z,5.07
2023-09-04T10:03:45.805Z,6.60
2023-09-04T10:06:22.788Z,5.55
2023-09-04T10:08:52.294Z,5.65
2023-09-04T10:11:19.599Z,5.22
2023-09-04T10:13:54.008Z,6.05
2023-09-04T10:18:52.462Z,5.00
2023-09-04T10:21:21.832Z,5.55
2023-09-04T10:24:00.304Z,6.10
2023-09-04T10:26:34.892Z,4.90
2023-09-04T10:29:04.341Z,6.85
2023-09-04T10:31:34.912Z,5.78
2023-09-04T10:34:02.668Z,7.63
2023-09-04T10:36:30.282Z,4.93
2023-09-04T10:39:07.047Z,7.15
2023-09-04T10:41:34.153Z,5.55
2023-09-04T10:44:01.152Z,6.75
2023-09-04T10:46:28.555Z,8.65
2023-09-04T10:48:56.323Z,5.63
2023-09-04T10:51:28.367Z,5.80
2023-09-04T10:53:55.757Z,8.07
2023-09-04T10:56:24.277Z,7.15
2023-09-04T10:59:02.135Z,5.95
2023-09-04T11:01:32.568Z,5.00
2023-09-04T11:04:01.976Z,5.53
2023-09-04T11:06:28.914Z,5.68
2023-09-04T11:08:55.875Z,7.15
2023-09-04T11:11:27.527Z,5.18
2023-09-04T11:13:59.394Z,5.30
2023-09-04T11:16:26.978Z,7.35
2023-09-04T11:19:08.049Z,5.53
2023-09-04T11:21:36.816Z,5.60
2023-09-04T11:24:04.932Z,6.07
2023-09-04T11:26:33.251Z,5.43
2023-09-04T11:29:01.416Z,5.68
2023-09-04T11:31:29.783Z,4.97
2023-09-04T11:33:56.877Z,5.68
2023-09-04T11:36:24.854Z,5.63
2023-09-04T11:39:06.804Z,5.55
2023-09-04T11:41:35.128Z,4.30
2023-09-04T11:44:04.510Z,4.82
2023-09-04T11:46:31.572Z,4.68
2023-09-04T11:48:58.558Z,4.00
2023-09-04T11:51:25.577Z,4.18
2023-09-04T11:53:54.120Z,3.97
2023-09-04T11:56:21.197Z,4.13
2023-09-04T11:58:50.122Z,4.72
2023-09-04T12:01:17.102Z,5.28
2023-09-04T12:03:44.198Z,5.10
2023-09-04T12:06:11.389Z,4.10
2023-09-04T12:08:38.451Z,4.25
2023-09-04T12:11:07.338Z,4.07
2023-09-04T12:13:36.596Z,4.40
2023-09-04T12:16:09.149Z,4.72
2023-09-04T12:18:36.955Z,4.43
2023-09-04T12:21:07.269Z,4.70
2023-09-04T12:23:41.088Z,4.57
2023-09-04T12:26:10.425Z,4.18
2023-09-04T12:28:37.916Z,3.90
2023-09-04T12:31:08.374Z,3.83
2023-09-04T12:33:39.366Z,4.82
2023-09-04T12:36:07.750Z,4.10
2023-09-04T12:38:41.577Z,4.85
2023-09-04T12:41:08.561Z,4.78
2023-09-04T12:43:35.882Z,5.80
2023-09-04T12:46:03.547Z,5.05
2023-09-04T12:48:31.860Z,3.40
2023-09-04T12:50:58.860Z,3.50
2023-09-04T12:53:26.127Z,3.60
2023-09-04T12:55:53.333Z,4.07
2023-09-04T12:58:20.217Z,5.35
2023-09-04T13:00:47.696Z,3.58
2023-09-04T13:03:14.941Z,3.78
2023-09-04T13:05:43.571Z,4.15
2023-09-04T13:08:10.647Z,3.67
2023-09-04T13:10:37.625Z,5.15
2023-09-04T13:13:04.839Z,4.00
2023-09-04T13:15:31.894Z,3.55
2023-09-04T13:17:58.860Z,4.25
2023-09-04T13:20:25.852Z,4.55
2023-09-04T13:22:54.410Z,4.03
2023-09-04T13:25:21.412Z,5.35
2023-09-04T13:27:48.370Z,4.47
2023-09-04T13:30:15.427Z,3.85
2023-09-04T13:32:42.438Z,4.53
2023-09-04T13:35:09.571Z,4.70
2023-09-04T13:37:42.734Z,5.18
2023-09-04T13:40:12.230Z,5.63
2023-09-04T13:42:39.161Z,5.75
2023-09-04T13:45:06.978Z,5.70
2023-09-04T13:47:33.952Z,4.97
2023-09-04T13:50:00.928Z,5.30
2023-09-04T13:52:27.890Z,5.50
2023-09-04T13:54:54.834Z,5.50
2023-09-04T13:57:23.476Z,5.60
2023-09-04T13:59:50.429Z,5.35
2023-09-04T14:02:17.473Z,5.80
2023-09-04T14:04:44.545Z,7.40
2023-09-04T14:07:11.470Z,5.38
2023-09-04T14:09:38.476Z,4.97
2023-09-04T14:12:06.475Z,5.40
2023-09-04T14:14:34.892Z,5.00
2023-09-04T14:17:01.845Z,7.40
2023-09-04T14:19:28.808Z,6.43
2023-09-04T14:21:55.752Z,5.65
2023-09-04T14:24:22.935Z,6.28
2023-09-04T14:26:49.921Z,8.10
2023-09-04T14:29:16.896Z,7.57
2023-09-04T14:31:45.358Z,6.20
2023-09-04T14:34:12.312Z,5.47
2023-09-04T14:36:41.655Z,7.07
2023-09-04T14:39:20.927Z,6.95
2023-09-04T14:41:48.089Z,5.47
2023-09-04T14:44:15.075Z,6.38
2023-09-04T14:46:42.104Z,8.15
2023-09-04T14:49:10.481Z,6.78
2023-09-04T14:51:37.372Z,5.63
2023-09-04T14:54:04.310Z,7.53
2023-09-04T14:56:31.234Z,5.90
2023-09-04T14:58:58.385Z,5.43
2023-09-04T15:01:25.598Z,6.50
2023-09-04T15:03:52.791Z,5.25
2023-09-04T15:06:21.241Z,5.13
2023-09-04T15:08:48.266Z,5.03
2023-09-04T15:11:15.902Z,6.03
2023-09-04T15:13:44.205Z,5.05
2023-09-04T15:16:11.329Z,6.35
2023-09-04T15:18:38.357Z,5.45
2023-09-04T15:21:06.713Z,5.70
2023-09-04T15:23:35.424Z,5.70
2023-09-04T15:26:02.793Z,6.90
2023-09-04T15:28:30.920Z,5.10
2023-09-04T15:30:58.025Z,4.97
2023-09-04T15:33:25.943Z,5.18
2023-09-04T15:35:54.710Z,5.75
2023-09-04T15:38:27.970Z,7.50
2023-09-04T15:40:56.361Z,6.20
2023-09-04T15:43:23.391Z,9.10
2023-09-04T15:45:51.039Z,7.20
2023-09-04T15:48:18.176Z,12.30
2023-09-04T15:50:45.074Z,7.35
2023-09-04T15:53:11.980Z,10.48
2023-09-04T15:55:38.978Z,11.85
2023-09-04T15:58:07.434Z,9.00
2023-09-04T16:00:34.822Z,12.02
2023-09-04T16:03:02.041Z,7.88
2023-09-04T16:05:29.063Z,5.82
2023-09-04T16:07:56.037Z,7.75
2023-09-04T16:10:22.982Z,8.43
2023-09-04T16:12:49.922Z,6.75
2023-09-04T16:15:19.274Z,5.88
2023-09-04T16:17:47.304Z,5.35
2023-09-04T16:20:14.314Z,4.97
2023-09-04T16:22:41.387Z,7.22
2023-09-04T16:25:08.575Z,7.30
2023-09-04T16:27:35.475Z,6.13
2023-09-04T16:30:02.444Z,5.65
2023-09-04T16:32:30.895Z,6.40
2023-09-04T16:34:57.876Z,5.20
2023-09-04T16:37:24.779Z,7.53
2023-09-04T16:39:51.852Z,6.63
2023-09-04T16:42:18.891Z,6.40
2023-09-04T16:44:45.800Z,5.25
2023-09-04T16:47:13.013Z,6.57
2023-09-04T16:49:41.309Z,5.55
2023-09-04T16:52:08.323Z,7.40
2023-09-04T16:54:35.261Z,7.38
2023-09-04T16:57:02.294Z,5.78
2023-09-04T16:59:29.257Z,7.75
2023-09-04T17:01:56.203Z,5.30
2023-09-04T17:04:23.116Z,6.10
2023-09-04T17:06:51.456Z,5.75
2023-09-04T17:09:18.418Z,6.80
2023-09-04T17:11:45.368Z,6.03
2023-09-04T17:14:12.328Z,5.50
2023-09-04T17:16:39.349Z,5.20
2023-09-04T17:19:06.334Z,6.75
2023-09-04T17:21:33.242Z,5.90
2023-09-04T17:24:01.555Z,6.22
2023-09-04T17:26:28.441Z,5.20
2023-09-04T17:28:56.411Z,6.72
2023-09-04T17:31:23.492Z,5.95
2023-09-04T17:33:50.495Z,5.88
2023-09-04T17:36:17.446Z,7.80
2023-09-04T17:38:44.539Z,5.93
2023-09-04T17:41:14.625Z,5.63
2023-09-04T17:43:42.320Z,7.60
2023-09-04T17:46:09.936Z,5.88
2023-09-04T17:48:36.932Z,6.30
2023-09-04T17:51:04.866Z,5.65
2023-09-04T17:53:32.215Z,5.53
2023-09-04T17:55:59.119Z,5.97
2023-09-04T17:58:29.645Z,7.28
2023-09-04T18:00:56.793Z,6.10
2023-09-04T18:03:23.875Z,9.70
2023-09-04T18:05:50.988Z,8.40
2023-09-04T18:08:18.106Z,5.97
2023-09-04T18:10:45.135Z,6.15
2023-09-04T18:13:12.266Z,6.03
2023-09-04T18:15:49.280Z,6.50
2023-09-04T18:18:18.029Z,6.88
2023-09-04T18:20:45.286Z,6.40
2023-09-04T18:23:12.436Z,6.25
2023-09-04T18:25:39.621Z,8.95
2023-09-04T18:28:09.675Z,8.75
2023-09-04T18:30:36.596Z,6.05
2023-09-04T18:33:05.484Z,6.03
2023-09-04T18:35:32.719Z,7.05
2023-09-04T18:37:59.686Z,6.95
2023-09-04T18:40:26.645Z,7.22
2023-09-04T18:42:53.859Z,7.78
2023-09-04T18:45:20.863Z,7.38
2023-09-04T18:47:47.844Z,5.65
2023-09-04T18:50:16.090Z,6.72
2023-09-04T18:52:43.000Z,6.95
2023-09-04T18:55:10.064Z,6.93
2023-09-04T18:57:36.956Z,6.22
2023-09-04T19:00:05.289Z,5.97
2023-09-04T19:02:32.338Z,6.68
2023-09-04T19:04:59.329Z,7.43
2023-09-04T19:07:27.612Z,6.65
2023-09-04T19:09:55.037Z,7.68
2023-09-04T19:12:21.951Z,6.68
2023-09-04T19:14:48.881Z,6.15
2023-09-04T19:17:15.793Z,6.78
2023-09-04T19:19:42.893Z,5.90
2023-09-04T19:22:09.891Z,5.95
2023-09-04T19:24:38.274Z,5.93
2023-09-04T19:27:05.564Z,5.88
2023-09-04T19:29:32.552Z,6.35
2023-09-04T19:31:59.541Z,6.97
2023-09-04T19:34:26.662Z,6.60
2023-09-04T19:36:53.590Z,5.90
2023-09-04T19:39:20.598Z,7.22
2023-09-04T19:41:48.875Z,5.85
2023-09-04T19:44:15.755Z,7.65
2023-09-04T19:46:42.760Z,7.07
2023-09-04T19:49:09.686Z,7.13
2023-09-04T19:51:36.605Z,5.18
2023-09-04T19:54:03.690Z,6.53
2023-09-04T19:56:30.756Z,7.15
2023-09-04T19:58:59.105Z,6.82
2023-09-04T20:01:26.188Z,5.40
2023-09-04T20:03:53.413Z,6.45
2023-09-04T20:06:20.371Z,8.60
2023-09-04T20:08:47.294Z,5.30
2023-09-04T20:11:14.253Z,5.38
2023-09-04T20:13:41.160Z,6.88
2023-09-04T20:16:09.569Z,10.70
2023-09-04T20:18:36.509Z,5.13
2023-09-04T20:21:03.469Z,5.55
2023-09-04T20:23:30.349Z,5.85
2023-09-04T20:26:00.282Z,5.50
2023-09-04T20:28:27.631Z,6.32
2023-09-04T20:30:55.027Z,5.70
2023-09-04T20:33:24.568Z,6.00
2023-09-04T20:35:52.473Z,6.30
2023-09-04T20:38:19.438Z,7.05
2023-09-04T20:40:46.538Z,6.63
2023-09-04T20:43:13.432Z,6.60
2023-09-04T20:45:40.492Z,6.65
2023-09-04T20:48:08.037Z,8.23
2023-09-04T20:50:36.435Z,5.88
2023-09-04T20:53:03.660Z,5.43
2023-09-04T20:55:30.762Z,7.80
2023-09-04T20:57:57.637Z,8.38
2023-09-04T21:00:24.670Z,7.35
2023-09-04T21:02:51.742Z,7.00
2023-09-04T21:05:18.775Z,7.55
2023-09-04T21:07:47.094Z,7.18
2023-09-04T21:10:15.239Z,6.10
2023-09-04T21:12:42.151Z,7.45
2023-09-04T21:15:09.963Z,6.68
2023-09-04T21:17:37.100Z,7.53
2023-09-04T21:20:04.629Z,6.03
2023-09-04T21:22:31.568Z,6.05
2023-09-04T21:25:00.146Z,6.43
2023-09-04T21:27:27.244Z,7.22
2023-09-04T21:29:54.167Z,6.85
2023-09-04T21:32:21.070Z,6.55
2023-09-04T21:34:48.253Z,6.50
2023-09-04T21:37:15.329Z,5.88
2023-09-04T21:39:42.248Z,7.70
2023-09-04T21:42:10.610Z,9.68
2023-09-04T21:44:37.607Z,8.35
2023-09-04T21:47:04.909Z,6.78
2023-09-04T21:49:31.875Z,8.15
2023-09-04T21:51:59.285Z,6.32
2023-09-04T21:54:26.264Z,6.55
2023-09-04T21:56:53.193Z,6.22
2023-09-04T21:59:21.642Z,6.47
2023-09-04T22:01:48.645Z,5.93
2023-09-04T22:04:15.779Z,7.63
2023-09-04T22:06:42.927Z,7.40
2023-09-04T22:09:09.886Z,6.45
2023-09-04T22:11:36.792Z,6.68
2023-09-04T22:14:03.729Z,10.27
2023-09-04T22:16:32.067Z,10.35
2023-09-04T22:18:58.973Z,8.32
2023-09-04T22:21:25.929Z,6.55
2023-09-04T22:23:53.320Z,8.20
2023-09-04T22:26:20.375Z,6.55
2023-09-04T22:28:47.457Z,7.93
2023-09-04T22:31:14.434Z,6.53
2023-09-04T22:33:43.431Z,7.88
2023-09-04T22:36:10.344Z,7.57
2023-09-04T22:38:37.293Z,7.18
2023-09-04T22:41:04.451Z,8.43
2023-09-04T22:43:31.438Z,7.45
2023-09-04T22:45:58.371Z,6.57
2023-09-04T22:48:25.341Z,7.00
2023-09-04T22:50:53.701Z,7.68
2023-09-04T22:53:20.678Z,7.38
2023-09-04T22:55:47.585Z,8.10
2023-09-04T22:58:14.479Z,7.78
2023-09-04T23:00:41.570Z,8.48
2023-09-04T23:03:12.524Z,7.75
2023-09-04T23:05:39.479Z,6.45
2023-09-04T23:08:08.116Z,7.32
2023-09-04T23:10:35.252Z,6.75
2023-09-04T23:13:02.162Z,11.38
2023-09-04T23:15:30.444Z,8.75
2023-09-04T23:17:57.511Z,7.45
2023-09-04T23:20:24.466Z,8.07
2023-09-04T23:22:51.358Z,9.43
2023-09-04T23:25:20.024Z,8.18
2023-09-04T23:27:47.178Z,7.93
2023-09-04T23:30:14.834Z,8.55
2023-09-04T23:32:41.839Z,10.25
2023-09-04T23:35:09.497Z,11.38
2023-09-04T23:37:36.500Z,9.57
2023-09-04T23:40:03.595Z,9.30
2023-09-04T23:42:35.956Z,8.63
2023-09-04T23:45:02.930Z,7.30
2023-09-04T23:47:29.935Z,10.05
2023-09-04T23:49:57.022Z,7.30
2023-09-04T23:52:23.988Z,7.20
2023-09-04T23:54:50.881Z,9.20
2023-09-04T23:57:18.009Z,9.52
2023-09-04T23:59:46.314Z,7.50
